默认 日期 大小 文件数 浏览量 最新下载 xml
90s hits磁力链接相关资源由用户搜索指令自动获取,结果来源于网络,本站不存储任何资料,亦不承担任何责任,请于24小时内删除,搜索到1180个磁力,用时4ms。
    ... Party.mkv": 4631569805, "02. Dance Hits 90`s - Retro Dance Party ... .mkv": 4545633149, "03. Dance Hits 90`s - Retro Dance Party ... .mkv": 4646044506, "04. Dance Hits 90`s - Retro Dance Party ... .mkv": 4641435170, "05. Dance Hits 90`s - Retro Dance Party ...
创建时间: 2019-03-19 03:55:53 大小:38.49 GB 文件数量:9 热度:22 最近下载:2024-10-09 01:02:03
    {"145. Colonia - Ti.mp3": 3461190, "148. Danny - Emely.mp3": 2909090, "094. Colonia - Kisa.mp3": 4218954, "136. Inna - Amazing.mp3": 3281053, "066. Vintage - Mikki.mp3": 3686894, "065. Colonia - Deja Vu.mp3": 3143969, "164. DJ Bobo - Roll Up.mp3": 2590173, ...
创建时间: 2019-03-19 04:58:17 大小:682.8 MB 文件数量:180 热度:1 最近下载:2021-06-17 16:25:58
    ... ": 2926636, "Stars On 45 - Club Hits.mp3": 11539106, "Suzy Q - Computer ...
创建时间: 2019-03-19 06:13:53 大小:14.15 GB 文件数量:2000 热度:5 最近下载:2024-12-28 05:45:01
    {"006 Sabrina - Boys.mp3": 6171486, "122 Freeez - I.O.U..mp3": 4064000, "132 A-ha - Cry Wolf.mp3": 6103088, "048 Spagna - Call Me.mp3": 6325114, "058 Savage - Goodbye.mp3": 7271311, "150 Yazoo - Don't Go.mp3": 4744474, "007 Duran Duran - Rio.mp3": 7380516, ...
创建时间: 2019-03-19 14:57:04 大小:918.89 MB 文件数量:161 热度:1 最近下载:2021-06-17 16:25:58
    {"019 - Doop - Doop.mp3": 7552479, "023 - Edsilia - Get Here.mp3": 8397802, "030 - Jon Secada - Angel.mp3": 10987059, "026 - Go West - Faithful.mp3": 10439532, "017 - Chumbawamba - Amnesia.mp3": 9940071, "018 - Dana Dawson - Show Me.mp3": 9107288, "005 - ...
创建时间: 2019-03-19 17:04:09 大小:279.36 MB 文件数量:30 热度:1 最近下载:2021-06-17 16:25:58
    {"90's Pop Hits CD 01": {"13. Paul Young - ... ).mp3": 3518421}, "90's Pop Hits CD 02": {"08. Diana King ... .mp3": 2210626}, "90's Pop Hits CD 03": {"04. Blaque - 808 ...
创建时间: 2019-03-22 08:01:48 大小:150.82 MB 文件数量:40 热度:5 最近下载:2022-04-09 06:11:12
    ... ": 8011890, "1376071356_va-disco-hits-of-the-70s-80s-90s-2013.jpg": 35343 ...
创建时间: 2019-03-23 01:55:55 大小:710.39 MB 文件数量:71 热度:5 最近下载:2023-04-24 19:10:19
    {"CD1": {"03. Cher - Believe_[plixid.com].mp3": 9212846, "19. Suggs - Cecelia_[plixid.com].mp3": 7162761, "04. Aqua - Barbie Girl_[plixid.com].mp3": 7831499, "10. The Corrs - Dreams_[plixid.com].mp3": 9359142, "02. Spice Girls - Wannabe_[plixid.com].mp3": ...
创建时间: 2019-03-23 22:36:48 大小:735.22 MB 文件数量:91 热度:4 最近下载:2022-04-09 07:03:10
    {"09. Scooter - Move Your Ass!.mp3": 14086034, "44. Wienna - Fu-Tu-Re (War Edit).mp3": 11850665, "54. Le Click - Call Me (Uk Club Mix).mp3": 12640905, "02. Levy 9 - Gimme More (130 Bpm Mix).mp3": 16350821, "15. On-X - Missing You (Extended Mix).mp3": ...
创建时间: 2019-03-24 20:21:34 大小:769.8 MB 文件数量:61 热度:6 最近下载:2022-04-09 05:56:15
    {"HD-ELITE.NET.txt": 1687, "90s Video Hits Vol.2.iso": 4642850816}
创建时间: 2019-03-25 19:01:08 大小:4.32 GB 文件数量:2 热度:6 最近下载:2022-04-13 06:31:11
    {"Disc 1": {"Folder.jpg": 71588, "03 Louise - Naked.mp3": 8622654, "16 E-17 - Each Time.mp3": 9188997, "01 Roxette - Joyride.mp3": 10732273, "11 Shampoo - Delicious.mp3": 7307174, "12 Kim Appleby - G.L.A.D..mp3": 8219354, "15 Billie - She Wants You.mp3": ...
创建时间: 2019-03-30 20:05:05 大小:896.17 MB 文件数量:105 热度:6 最近下载:2022-04-13 06:11:48
    {"Rave Hits Of The 90s Vol 1-2013": {"06 - DJ ... - BOTTROP.mp3": 12958208, "Rave Hits Of The 90s Vol 1.jpg": 37522 ... version).mp3": 12673024}, "Rave Hits Of The 90s Vol 2-2013": {"02 ... - Arguments.mp3": 16756224, "Rave Hits Of The 90s Vol 2.jpg": 42827 ...
创建时间: 2019-04-09 20:07:25 大小:364.49 MB 文件数量:33 热度:6 最近下载:2022-04-13 05:40:36
    {"cd1": {"11. Ann Lee - 2 Times.mp3": 9406834, "13. Fun Factory - Celebration.mp3": 8449724, "09. Whigfield - Saturday Night.mp3": 9121596, "17. Pizzaman - Sex On the Streets.mp3": 9211462, "19. maxx - Get a Way (Airplay Mix).mp3": 9240722, "04. DJ BoBo - ...
创建时间: 2019-04-19 04:44:26 大小:539.77 MB 文件数量:65 热度:5 最近下载:2022-04-15 05:56:46
    {"42. U2 - One.mp3": 11024761, "12. Creed - One.mp3": 12094737, "08. R.E.M. - Drive.mp3": 10862802, "48. Hanson - Mmmbop.mp3": 10697708, "11. Yes - Lift Me Up.mp3": 15606639, "41. 2Pac - Dear Mama.mp3": 11204484, "60. Inxs - Disappear.mp3": 10035243, "24. ...
创建时间: 2019-04-21 03:57:57 大小:772.5 MB 文件数量:71 热度:5 最近下载:2022-04-16 06:07:21
    {"CD1": {"19. JK - You And I.mp3": 8357051, "07. Maxx - Get A Way.mp3": 8884724, "12. Me&My - Dub I Dub.mp3": 7970439, "15. DJ Bobo - Everybody.mp3": 9164757, "06. Nina - Reason Is You.mp3": 8403026, "10. Dr.Alban - Its My Life.mp3": 9105198, "01. Haddaway ...
创建时间: 2019-04-23 07:18:55 大小:1.14 GB 文件数量:135 热度:3 最近下载:2021-06-17 16:25:58
    {"btsone.cc.url": 120, "Torrent downloaded from bt-scene.cc.txt": 275, "6 - Asia - Heat Of The Moment (Live).mp3": 12661770, "5 - Gin Blossoms - Hey Jealousy (Live).mp3": 9602062, "24 - Night Ranger - Sister Christian (Live).mp3": 12776471, "27 - Fat Boys ...
创建时间: 2019-04-25 07:04:04 大小:350.35 MB 文件数量:37 热度:3 最近下载:2021-06-17 16:25:58
    ... mp3": 6607182}}, "Anthems- 90s (192)": {"Anthems- 90s Disc 1": {"18 Killer ... ).mp3": 9581697}}, "90 Club Hits from the 90s (192)": {"CD1": {"cover ... mp3": 8401724}}, "VA - Greatest Hits of the 90's (8CD ... mp3": 8557417}}, "VA - 100 Hits The Best Nineties Album [5CD ...
创建时间: 2019-05-01 01:28:02 大小:6.58 GB 文件数量:896 热度:4 最近下载:2023-02-27 18:50:10
    ... - 90s Dance Hits Vol.3-2CD-2019.jpg": 184019, "VA - 90s Dance Hits Vol ...
创建时间: 2019-05-05 18:31:15 大小:355.43 MB 文件数量:42 热度:3 最近下载:2021-06-17 16:25:58
    {"folder.jpg": 196592, "27. 49ers - Touch Me.mp3": 9790269, "21. Snap! - The Power.mp3": 9898940, "22. DJ Bobo - Everybody.mp3": 10013882, "02. Salt-N-Pepa - Push It.mp3": 11566605, "08. Whigfield - Sexy Eyes.mp3": 10340940, "33. Capella - ...
创建时间: 2019-05-05 19:01:15 大小:379.53 MB 文件数量:41 热度:3 最近下载:2021-06-17 16:25:58
    {"27. 49ers - Touch Me.mp3": 9790269, "21. Snap! - The Power.mp3": 9898940, "22. DJ Bobo - Everybody.mp3": 10013882, "02. Salt-N-Pepa - Push It.mp3": 11566605, "08. Whigfield - Sexy Eyes.mp3": 10340940, "33. Capella - Move On Baby.mp3": ...
创建时间: 2019-05-10 03:40:51 大小:379.34 MB 文件数量:40 热度:3 最近下载:2021-06-17 16:25:58